Aérodrome :
LOGIN :

S'inscrire | Disclaimer

   EN    FR    IT 

 










Légende :    VFR   VFR Marginal   IFR   IFR Intensif   IFR Très Intensif
Visi : 
Plafond : 
>= 8 km
>= 3000ft
5 à 8 km
1000 à 3000 ft
1500m à 5 km
500 à 1000 ft
800 à 1500m
200 à 500 ft
< 800m
< 200 ft
Symboles :   Orages  Brouillard  Fortes neiges  Fortes précipitations  Vent > 20 kt
SIGMETs :   Divers  Orages  Givrage  Turbulence  Onde Orograph.  Cendres Volcan.







- Altitude de l'aérodrome : 1260 ft
- Code IATA : LDE
- Voir les cartes d'approche


LFBT - Tarbes / Ossun

DERNIER METAR :
  • 220730Z AUTO VRB02KT CAVOK 11/09 Q1004 NOSIG

METARs EXPIRÉS :
  • 220700Z AUTO 22005KT CAVOK 10/09 Q1004 TEMPO 3000 BR BKN008
  • 220630Z AUTO 18005KT CAVOK 08/08 Q1004 TEMPO 3000 BR BKN008
  • 220600Z AUTO 17003KT 120V190 CAVOK 07/07 Q1004 TEMPO 3000 BR BKN008
  • 220530Z AUTO 16004KT 9000 NSC 07/07 Q1005 TEMPO 3000 BR BKN008
  • 220500Z AUTO VRB03KT CAVOK 07/07 Q1005 TEMPO BKN008

TAF TAF LFBT
Valide du 22 à 06h jusqu'au 23 à 06h UTC


220500Z 2206/2306 VRB03KT CAVOK
PROB30
TEMPO 2206/2208 26008KT 3000 BR BKN008
BECMG 2209/2211 06005KT
Pas de NOTAMs connus pour ce terrain.



MET'MAP, la Météo Aéronautique d'un coup d'oeil ! - Copyright ORBIFLY Décembre 2007 - Disclaimer

ORBIFLY MET'MAP TEAM :

Programmation & Développement : Alexandra Zaïnal
Conception & Développement : Baudouin d'Aumeries
Co-Programmation & Développement : Marc-Olivier Méhu
Soutien technique & logistique : Manuel Goepfert

Contact : metmap@orbifly.com




SOURCES & CREDITS :

   NOAA